CYXS

Prince George Airport

Prince George, British Columbia, Canada
METAR CYXS 211500Z AUTO 17007KT 9SM CLR M09/M10 A3002 RMK SLP212
Observed Flight Rules
Jan-21 @ 15:00 UTC (60 minutes ago) Visual Flight Rules
Wind Visibility Clouds
170° at 7 knots 9 miles
  • Clear skies
Temperatures Readings
Current -9°C / 16°F
Dewpoint -10°C / 14°F
Humidity 93%
Altimeter 30.02" Hg
Pressure 1021.2 hPa
Elevation 691
METAR CYXS 211500Z AUTO 17007KT 9SM CLR M09/M10 A3002 RMK SLP212
Observed Flight Rules
Jan-21 @ 15:00 UTC
(60 minutes ago)
VFR
Wind Visibility
170° at 7 knots 9 miles
Clouds
  • Clear skies
Temperature Dewpoint
-9°C / 16°F -10°C / 14°F
Humidity Altimeter Pressure
93% 30.02" Hg 1021.2 hPa